createdAt,value
2023-04-08T00:00:02.624Z,0
2023-04-08T00:15:02.876Z,0
2023-04-08T00:30:02.308Z,0
2023-04-08T00:45:02.755Z,0
2023-04-08T01:00:03.203Z,0
2023-04-08T01:15:02.645Z,0
2023-04-08T01:30:03.107Z,0
2023-04-08T01:45:02.649Z,0
2023-04-08T02:00:02.969Z,0
2023-04-08T02:15:02.389Z,0
2023-04-08T02:30:02.840Z,0
2023-04-08T02:45:02.257Z,0
2023-04-08T03:00:02.744Z,0
2023-04-08T03:15:03.156Z,0
2023-04-08T03:30:02.669Z,0
2023-04-08T03:45:03.059Z,0
2023-04-08T04:00:02.677Z,0
2023-04-08T04:15:02.941Z,0
2023-04-08T04:30:02.389Z,0
2023-04-08T04:45:02.782Z,0
2023-04-08T05:00:05.170Z,3
2023-04-08T05:15:02.715Z,9
2023-04-08T05:30:03.148Z,20
2023-04-08T05:45:02.688Z,32
2023-04-08T06:00:03.025Z,33
2023-04-08T06:15:02.670Z,20
2023-04-08T06:30:02.910Z,38
2023-04-08T06:45:02.332Z,39
2023-04-08T07:00:02.800Z,54
2023-04-08T07:15:03.230Z,70
2023-04-08T07:30:02.705Z,100
2023-04-08T07:45:03.094Z,55
2023-04-08T08:00:02.710Z,69
2023-04-08T08:15:02.988Z,59
2023-04-08T08:30:02.465Z,102
2023-04-08T08:45:02.864Z,123
2023-04-08T09:00:02.308Z,93
2023-04-08T09:15:02.753Z,193
2023-04-08T09:30:02.195Z,147
2023-04-08T09:45:02.716Z,104
2023-04-08T10:00:03.062Z,78
2023-04-08T10:15:02.728Z,94
2023-04-08T10:30:02.947Z,128
2023-04-08T10:45:02.383Z,144
2023-04-08T11:00:02.805Z,141
2023-04-08T11:15:03.256Z,136
2023-04-08T11:30:02.784Z,165
2023-04-08T11:45:03.132Z,168
2023-04-08T12:00:02.757Z,145
2023-04-08T12:15:03.013Z,194
2023-04-08T12:30:02.460Z,224
2023-04-08T12:45:02.901Z,211
2023-04-08T13:00:02.342Z,152
2023-04-08T13:15:02.796Z,147
2023-04-08T13:30:02.189Z,136
2023-04-08T13:45:02.764Z,103
2023-04-08T14:00:03.063Z,85
2023-04-08T14:15:02.511Z,81
2023-04-08T14:30:02.922Z,82
2023-04-08T14:45:02.368Z,97
2023-04-08T15:00:02.852Z,78
2023-04-08T15:15:02.261Z,89
2023-04-08T15:30:02.854Z,64
2023-04-08T15:45:02.157Z,84
2023-04-08T16:00:02.803Z,70
2023-04-08T16:15:02.035Z,45
2023-04-08T16:30:02.514Z,37
2023-04-08T16:45:02.898Z,22
2023-04-08T17:00:02.318Z,13
2023-04-08T17:15:02.807Z,8
2023-04-08T17:30:02.222Z,1
2023-04-08T17:45:02.841Z,0
2023-04-08T18:00:02.086Z,0
2023-04-08T18:15:02.533Z,0
2023-04-08T18:30:02.960Z,0
2023-04-08T18:45:02.390Z,0
2023-04-08T19:00:02.844Z,0
2023-04-08T19:15:02.266Z,0
2023-04-08T19:30:02.839Z,0
2023-04-08T19:45:02.156Z,0
2023-04-08T20:00:02.742Z,0
2023-04-08T20:15:03.035Z,0
2023-04-08T20:30:02.514Z,0
2023-04-08T20:45:02.900Z,0
2023-04-08T21:00:02.335Z,0
2023-04-08T21:15:02.878Z,0
2023-04-08T21:30:02.182Z,0
2023-04-08T21:45:02.871Z,0
2023-04-08T22:15:02.566Z,0
2023-04-08T22:30:02.957Z,0
2023-04-08T22:45:02.383Z,0
2023-04-08T23:00:04.253Z,0
2023-04-08T23:15:03.273Z,0
2023-04-08T23:30:02.872Z,0
2023-04-08T23:45:02.148Z,0
